createdAt,value
2018-07-04T00:00:03.725Z,81.68
2018-07-04T00:01:03.578Z,82.35
2018-07-04T00:02:04.140Z,82.93
2018-07-04T00:03:03.547Z,83.31
2018-07-04T00:04:05.455Z,83.50
2018-07-04T00:05:04.051Z,83.40
2018-07-04T00:06:03.510Z,83.50
2018-07-04T00:07:03.474Z,84.17
2018-07-04T00:08:03.429Z,83.89
2018-07-04T00:09:03.385Z,80.25
2018-07-04T00:10:03.425Z,79.20
2018-07-04T00:11:03.522Z,79.68
2018-07-04T00:12:03.563Z,79.87
2018-07-04T00:13:04.996Z,80.06
2018-07-04T00:14:03.292Z,80.54
2018-07-04T00:15:03.755Z,80.73
2018-07-04T00:16:03.263Z,80.44
2018-07-04T00:17:03.128Z,80.69
2018-07-04T00:18:03.114Z,81.74
2018-07-04T00:19:03.124Z,82.98
2018-07-04T00:20:03.154Z,83.84
2018-07-04T00:21:03.947Z,84.23
2018-07-04T00:22:03.070Z,85.09
2018-07-04T00:23:02.976Z,84.52
2018-07-04T00:24:05.101Z,85.09
2018-07-04T00:25:03.543Z,85.47
2018-07-04T00:26:05.013Z,86.04
2018-07-04T00:27:03.510Z,85.66
2018-07-04T00:28:04.510Z,85.66
2018-07-04T00:29:02.931Z,86.71
2018-07-04T00:30:02.905Z,87.86
2018-07-04T00:31:02.883Z,88.34
2018-07-04T00:32:05.437Z,88.91
2018-07-04T00:33:02.790Z,89.39
2018-07-04T00:34:05.500Z,89.77
2018-07-04T00:35:02.741Z,89.29
2018-07-04T00:36:03.144Z,90.06
2018-07-04T00:37:04.611Z,89.87
2018-07-04T00:38:04.578Z,90.25
2018-07-04T00:39:03.558Z,89.58
2018-07-04T00:40:04.479Z,89.25
2018-07-04T00:41:04.507Z,89.63
2018-07-04T00:42:02.523Z,89.39
2018-07-04T00:43:04.008Z,88.96
2018-07-04T00:44:02.958Z,89.29
2018-07-04T00:45:02.412Z,88.77
2018-07-04T00:46:02.407Z,88.48
2018-07-04T00:47:02.285Z,87.34
2018-07-04T00:48:03.996Z,88.01
2018-07-04T00:49:02.753Z,88.10
2018-07-04T00:50:02.270Z,88.01
2018-07-04T00:51:03.480Z,87.53
2018-07-04T00:52:02.316Z,88.29
2018-07-04T00:53:02.200Z,88.01
2018-07-04T00:54:02.237Z,87.91
2018-07-04T00:55:02.179Z,88.20
2018-07-04T00:56:02.886Z,89.25
2018-07-04T00:57:02.010Z,90.01
2018-07-04T00:58:05.433Z,90.20
2018-07-04T00:59:02.084Z,90.11
2018-07-04T01:00:03.056Z,90.59
2018-07-04T01:01:02.016Z,90.78
2018-07-04T01:02:01.996Z,90.68
2018-07-04T01:03:02.427Z,90.78
2018-07-04T01:04:01.971Z,91.16
2018-07-04T01:05:01.903Z,91.02
2018-07-04T01:06:01.904Z,91.40
2018-07-04T01:07:01.812Z,90.64
2018-07-04T01:08:01.856Z,91.30
2018-07-04T01:09:01.783Z,91.02
2018-07-04T01:10:01.803Z,91.40
2018-07-04T01:11:05.054Z,91.21
2018-07-04T01:12:01.743Z,91.97
2018-07-04T01:13:02.570Z,91.21
2018-07-04T01:14:01.549Z,91.59
2018-07-04T01:15:01.661Z,91.97
2018-07-04T01:16:01.674Z,92.07
2018-07-04T01:17:01.876Z,92.36
2018-07-04T01:18:01.568Z,92.26
2018-07-04T01:19:01.393Z,92.16
2018-07-04T01:20:01.494Z,92.45
2018-07-04T01:21:01.488Z,91.97
2018-07-04T01:22:01.492Z,92.64
2018-07-04T01:23:01.383Z,92.16
2018-07-04T01:24:01.397Z,92.55
2018-07-04T01:25:01.322Z,91.78
2018-07-04T01:26:01.373Z,91.74
2018-07-04T01:27:04.041Z,91.74
2018-07-04T01:28:01.850Z,91.06
2018-07-04T01:29:01.328Z,91.54
2018-07-04T01:30:03.017Z,91.35
2018-07-04T01:31:01.499Z,91.54
2018-07-04T01:32:01.191Z,91.54
2018-07-04T01:33:01.105Z,90.97
2018-07-04T01:34:03.009Z,91.16
2018-07-04T01:35:01.117Z,91.06
2018-07-04T01:36:01.917Z,90.97
2018-07-04T01:37:01.382Z,90.97
2018-07-04T01:38:01.025Z,90.97
2018-07-04T01:39:00.916Z,90.78
2018-07-04T01:40:00.891Z,90.83
2018-07-04T01:41:03.057Z,90.78
2018-07-04T01:42:00.946Z,90.88
2018-07-04T01:43:00.853Z,90.39
2018-07-04T01:44:03.058Z,90.20
2018-07-04T01:45:00.861Z,89.63
2018-07-04T01:46:01.495Z,90.11
2018-07-04T01:47:00.725Z,89.53
2018-07-04T01:48:00.796Z,90.30
2018-07-04T01:49:00.754Z,90.11
2018-07-04T01:50:00.713Z,90.01
2018-07-04T01:51:00.677Z,90.49
2018-07-04T01:52:00.664Z,90.20
2018-07-04T01:53:01.080Z,90.59
2018-07-04T01:54:03.591Z,90.68
2018-07-04T01:55:01.046Z,90.11
2018-07-04T01:56:00.457Z,90.88
2018-07-04T01:57:00.494Z,91.16
2018-07-04T01:58:00.518Z,91.25
2018-07-04T01:59:05.965Z,91.54
2018-07-04T02:00:00.426Z,91.16
2018-07-04T02:01:00.379Z,91.88
2018-07-04T02:02:02.305Z,91.59
2018-07-04T02:05:41.692Z,91.50
2018-07-04T02:06:40.035Z,91.69
2018-07-04T02:07:40.399Z,91.64
2018-07-04T02:08:39.861Z,91.45
2018-07-04T02:09:40.437Z,91.25
2018-07-04T02:10:43.941Z,89.92
2018-07-04T02:11:39.755Z,89.92
2018-07-04T02:12:40.450Z,89.34
2018-07-04T02:13:39.707Z,88.68
2018-07-04T02:14:39.731Z,89.06
2018-07-04T02:15:39.646Z,88.77
2018-07-04T02:16:41.328Z,88.20
2018-07-04T02:17:39.615Z,88.87
2018-07-04T02:18:40.030Z,88.77
2018-07-04T02:19:39.666Z,88.20
2018-07-04T02:20:40.027Z,88.48
2018-07-04T02:21:39.583Z,88.10
2018-07-04T02:22:40.327Z,88.87
2018-07-04T02:23:39.520Z,88.48
2018-07-04T02:24:39.497Z,88.87
2018-07-04T02:25:39.466Z,88.48
2018-07-04T02:26:40.941Z,88.29
2018-07-04T02:27:39.327Z,87.82
2018-07-04T02:28:39.715Z,87.72
2018-07-04T02:29:41.477Z,87.24
2018-07-04T02:30:39.963Z,87.15
2018-07-04T02:31:39.478Z,86.10
2018-07-04T02:32:39.197Z,85.62
2018-07-04T02:33:39.233Z,86.00
2018-07-04T02:34:39.694Z,86.00
2018-07-04T02:35:39.180Z,85.81
2018-07-04T02:36:42.277Z,85.90
2018-07-04T02:37:40.441Z,86.10
2018-07-04T02:38:39.035Z,86.00
2018-07-04T02:39:43.909Z,86.15
2018-07-04T02:40:39.931Z,85.96
2018-07-04T02:41:39.035Z,86.24
2018-07-04T02:42:40.900Z,86.05
2018-07-04T02:43:40.496Z,85.96
2018-07-04T02:44:39.567Z,86.05
2018-07-04T02:45:38.810Z,86.72
2018-07-04T02:46:38.891Z,86.72
2018-07-04T02:47:38.823Z,86.34
2018-07-04T02:48:38.679Z,85.96
2018-07-04T02:49:38.721Z,85.48
2018-07-04T02:50:38.728Z,85.19
2018-07-04T02:51:39.482Z,85.10
2018-07-04T02:52:38.656Z,84.72
2018-07-04T02:53:38.772Z,84.72
2018-07-04T02:54:38.570Z,84.72
2018-07-04T02:55:39.451Z,84.72
2018-07-04T02:56:39.466Z,84.81
2018-07-04T02:57:38.505Z,84.14
2018-07-04T02:58:38.529Z,84.43
2018-07-04T02:59:38.501Z,84.23
2018-07-04T03:00:39.433Z,83.86
2018-07-04T03:01:38.419Z,83.76
2018-07-04T03:02:44.966Z,83.86
2018-07-04T03:03:38.390Z,83.95
2018-07-04T03:04:38.983Z,84.23
2018-07-04T03:05:38.345Z,84.33
2018-07-04T03:06:40.180Z,84.33
2018-07-04T03:07:40.956Z,84.91
2018-07-04T03:08:38.786Z,85.00
2018-07-04T03:09:38.759Z,84.91
2018-07-04T03:10:38.265Z,84.23
2018-07-04T03:11:38.109Z,84.43
2018-07-04T03:12:38.987Z,83.95
2018-07-04T03:13:38.120Z,83.86
2018-07-04T03:14:41.879Z,83.47
2018-07-04T03:15:38.991Z,83.47
2018-07-04T03:16:38.117Z,83.00
2018-07-04T03:17:38.214Z,82.52
2018-07-04T03:18:38.472Z,81.76
2018-07-04T03:19:38.548Z,81.76
2018-07-04T03:20:37.818Z,82.32
2018-07-04T03:21:38.505Z,81.66
2018-07-04T03:22:39.424Z,82.14
2018-07-04T03:23:37.816Z,82.61
2018-07-04T03:24:37.884Z,82.61
2018-07-04T03:25:38.404Z,81.95
2018-07-04T03:26:37.802Z,81.76
2018-07-04T03:27:37.772Z,81.76
2018-07-04T03:28:38.427Z,82.23
2018-07-04T03:29:37.609Z,82.04
2018-07-04T03:30:37.674Z,81.99
2018-07-04T03:31:39.497Z,81.79
2018-07-04T03:32:38.111Z,81.89
2018-07-04T03:33:37.542Z,81.89
2018-07-04T03:34:40.985Z,82.23
2018-07-04T03:35:37.417Z,82.81
2018-07-04T03:36:40.940Z,82.61
2018-07-04T03:37:37.478Z,82.65
2018-07-04T03:38:37.446Z,83.00
2018-07-04T03:39:39.073Z,82.75
2018-07-04T03:40:37.368Z,82.28
2018-07-04T03:41:38.957Z,82.84
2018-07-04T03:42:37.843Z,82.28
2018-07-04T03:43:37.327Z,82.75
2018-07-04T03:44:37.248Z,82.46
2018-07-04T03:45:37.804Z,82.08
2018-07-04T03:46:37.746Z,82.08
2018-07-04T03:47:37.961Z,81.51
2018-07-04T03:48:41.996Z,81.51
2018-07-04T03:49:40.925Z,81.03
2018-07-04T03:50:38.995Z,81.03
2018-07-04T03:51:37.430Z,81.51
2018-07-04T03:52:37.043Z,81.03
2018-07-04T03:53:37.046Z,80.40
2018-07-04T03:54:36.934Z,80.79
2018-07-04T03:55:38.141Z,80.59
2018-07-04T03:56:36.870Z,80.02
2018-07-04T03:57:36.837Z,80.11
2018-07-04T03:58:40.334Z,80.50
2018-07-04T03:59:36.901Z,80.69
2018-07-04T04:00:37.385Z,80.30
2018-07-04T04:01:36.754Z,80.50
2018-07-04T04:02:37.442Z,80.11
2018-07-04T04:03:36.664Z,80.02
2018-07-04T04:04:37.502Z,79.83
2018-07-04T04:05:38.236Z,80.11
2018-07-04T04:06:36.616Z,80.21
2018-07-04T04:07:38.434Z,79.83
2018-07-04T04:08:37.399Z,79.25
2018-07-04T04:09:36.580Z,77.23
2018-07-04T04:10:37.425Z,74.33
2018-07-04T04:11:39.388Z,71.63
2018-07-04T04:12:37.472Z,67.38
2018-07-04T04:13:36.471Z,64.43
2018-07-04T04:14:36.480Z,62.35
2018-07-04T04:15:36.417Z,60.08
2018-07-04T04:16:36.305Z,59.44
2018-07-04T04:17:36.518Z,58.86
2018-07-04T04:18:36.351Z,58.60
2018-07-04T04:19:37.405Z,57.64
2018-07-04T04:20:36.921Z,56.15
2018-07-04T04:21:40.914Z,55.57
2018-07-04T04:22:38.754Z,54.54
2018-07-04T04:23:46.766Z,52.45
2018-07-04T04:24:35.766Z,51.70
2018-07-04T04:25:35.727Z,51.12
2018-07-04T04:26:35.704Z,51.03
2018-07-04T04:27:35.682Z,50.57
2018-07-04T04:28:35.655Z,50.28
2018-07-04T04:29:35.637Z,49.41
2018-07-04T04:30:35.605Z,49.51
2018-07-04T04:31:35.596Z,49.99
2018-07-04T04:32:35.565Z,49.53
2018-07-04T04:33:35.547Z,49.15
2018-07-04T04:34:35.534Z,48.86
2018-07-04T04:35:35.498Z,48.76
2018-07-04T04:36:35.482Z,47.43
2018-07-04T04:37:35.456Z,46.58
2018-07-04T04:38:35.449Z,45.83
2018-07-04T04:39:35.421Z,45.18
2018-07-04T04:40:35.404Z,45.08
2018-07-04T04:41:35.374Z,44.50
2018-07-04T04:42:35.356Z,44.89
2018-07-04T04:43:35.334Z,44.96
2018-07-04T04:44:35.318Z,45.16
2018-07-04T04:45:35.291Z,45.25
2018-07-04T04:46:35.284Z,44.79
2018-07-04T04:47:35.258Z,44.70
2018-07-04T04:48:35.245Z,44.79
2018-07-04T04:49:35.223Z,44.21
2018-07-04T04:50:35.194Z,44.31
2018-07-04T04:51:35.181Z,44.21
2018-07-04T04:52:35.161Z,43.65
2018-07-04T04:53:35.149Z,43.07
2018-07-04T04:54:35.124Z,43.37
2018-07-04T04:55:35.105Z,42.97
2018-07-04T04:56:35.079Z,42.51
2018-07-04T04:57:35.072Z,41.95
2018-07-04T04:58:35.053Z,41.10
2018-07-04T04:59:35.040Z,41.49
2018-07-04T05:00:35.014Z,41.10
2018-07-04T05:01:43.938Z,40.34
2018-07-04T05:03:28.645Z,40.33
2018-07-04T05:04:28.615Z,41.17
2018-07-04T05:06:21.450Z,42.97
2018-07-04T05:07:21.402Z,44.56
2018-07-04T05:09:14.747Z,47.53
2018-07-04T05:10:14.699Z,47.63
2018-07-04T05:12:07.839Z,50.28
2018-07-04T05:13:07.821Z,52.83
2018-07-04T05:15:01.065Z,58.89
2018-07-04T05:16:00.917Z,59.99
2018-07-04T05:17:54.260Z,63.19
2018-07-04T05:18:54.234Z,63.86
2018-07-04T05:20:47.380Z,65.46
2018-07-04T05:21:48.159Z,66.03
2018-07-04T05:23:40.484Z,66.33
2018-07-04T05:24:40.441Z,66.33
2018-07-04T05:26:33.794Z,67.19
2018-07-04T05:27:33.735Z,67.29
2018-07-04T05:29:27.055Z,67.76
2018-07-04T05:30:27.037Z,68.24
2018-07-04T05:32:20.383Z,68.18
2018-07-04T05:33:20.336Z,68.24
2018-07-04T05:35:13.234Z,68.66
2018-07-04T05:36:13.137Z,69.34
2018-07-04T05:38:06.562Z,70.20
2018-07-04T05:39:06.222Z,69.78
2018-07-04T05:40:59.443Z,71.22
2018-07-04T05:41:59.313Z,71.70
2018-07-04T05:43:52.436Z,71.98
2018-07-04T05:44:52.405Z,71.45
2018-07-04T05:46:46.341Z,72.60
2018-07-04T05:47:46.296Z,72.50
2018-07-04T05:49:40.664Z,71.87
2018-07-04T05:50:40.638Z,71.48
2018-07-04T05:52:33.992Z,71.67
2018-07-04T05:53:33.941Z,71.87
2018-07-04T05:55:27.059Z,71.87
2018-07-04T05:56:27.013Z,71.58
2018-07-04T05:58:20.365Z,71.29
2018-07-04T05:59:20.312Z,71.48
2018-07-04T06:01:13.178Z,71.58
2018-07-04T06:02:13.120Z,71.87
2018-07-04T06:04:06.260Z,72.09
2018-07-04T06:05:06.218Z,72.29
2018-07-04T06:06:59.032Z,71.71
2018-07-04T06:07:59.002Z,71.33
2018-07-04T06:09:52.633Z,71.81
2018-07-04T06:10:52.601Z,72.00
2018-07-04T06:11:52.562Z,71.91
2018-07-04T06:12:52.542Z,72.48
2018-07-04T06:13:52.523Z,72.77
2018-07-04T06:14:52.494Z,72.77
2018-07-04T06:15:52.481Z,73.35
2018-07-04T06:16:52.444Z,73.44
2018-07-04T06:17:52.427Z,73.35
2018-07-04T06:18:52.405Z,72.19
2018-07-04T06:19:52.380Z,72.09
2018-07-04T06:20:52.355Z,71.61
2018-07-04T06:21:52.338Z,71.33
2018-07-04T06:22:52.324Z,71.42
2018-07-04T06:23:52.287Z,71.42
2018-07-04T06:24:52.282Z,71.17
2018-07-04T06:25:52.243Z,70.21
2018-07-04T06:26:52.216Z,70.56
2018-07-04T06:27:52.206Z,69.92
2018-07-04T06:28:52.182Z,69.92
2018-07-04T06:29:52.153Z,69.24
2018-07-04T06:30:52.133Z,68.57
2018-07-04T06:31:52.107Z,67.99
2018-07-04T06:32:52.085Z,67.71
2018-07-04T06:33:52.062Z,67.16
2018-07-04T06:34:52.047Z,66.94
2018-07-04T06:35:52.055Z,66.94
2018-07-04T06:36:51.995Z,66.84
2018-07-04T06:37:51.977Z,67.61
2018-07-04T06:38:51.953Z,67.80
2018-07-04T06:39:51.937Z,67.71
2018-07-04T06:40:51.920Z,67.90
2018-07-04T06:41:51.892Z,67.90
2018-07-04T06:42:51.862Z,67.16
2018-07-04T06:43:51.845Z,66.68
2018-07-04T06:44:51.816Z,66.30
2018-07-04T06:45:51.796Z,66.10
2018-07-04T06:46:51.783Z,66.01
2018-07-04T06:47:51.748Z,65.72
2018-07-04T06:48:51.782Z,65.33
2018-07-04T06:49:51.710Z,65.33
2018-07-04T06:50:51.694Z,64.89
2018-07-04T06:51:51.666Z,64.59
2018-07-04T06:52:51.641Z,64.59
2018-07-04T06:53:51.636Z,64.50
2018-07-04T06:54:51.593Z,64.50
2018-07-04T06:55:51.592Z,64.50
2018-07-04T06:56:51.557Z,64.73
2018-07-04T06:57:51.543Z,64.43
2018-07-04T06:58:51.523Z,64.18
2018-07-04T06:59:51.492Z,63.89
2018-07-04T07:00:51.475Z,63.41
2018-07-04T07:01:51.497Z,63.21
2018-07-04T07:02:51.441Z,62.83
2018-07-04T07:03:51.405Z,62.93
2018-07-04T07:04:51.381Z,63.60
2018-07-04T07:05:51.368Z,63.60
2018-07-04T07:06:51.343Z,62.73
2018-07-04T07:07:51.316Z,63.02
2018-07-04T07:08:51.302Z,62.93
2018-07-04T07:09:51.284Z,62.15
2018-07-04T07:10:51.255Z,61.41
2018-07-04T07:11:51.299Z,61.13
2018-07-04T07:12:51.215Z,60.74
2018-07-04T07:13:51.923Z,59.39
2018-07-04T07:14:51.170Z,58.91
2018-07-04T07:15:52.915Z,57.75
2018-07-04T07:16:52.932Z,59.68
2018-07-04T07:17:51.109Z,59.30
2018-07-04T07:18:51.089Z,60.35
2018-07-04T07:19:51.068Z,60.16
2018-07-04T07:20:51.060Z,59.84
2018-07-04T07:21:51.029Z,59.84
2018-07-04T07:22:51.017Z,59.97
2018-07-04T07:23:50.985Z,59.78
2018-07-04T07:24:51.934Z,59.48
2018-07-04T07:25:50.945Z,59.58
2018-07-04T07:26:50.925Z,58.81
2018-07-04T07:27:50.904Z,58.72
2018-07-04T07:28:50.884Z,57.65
2018-07-04T07:29:50.870Z,56.40
2018-07-04T07:30:50.852Z,55.46
2018-07-04T07:31:50.837Z,55.66
2018-07-04T07:32:50.801Z,53.92
2018-07-04T07:33:50.788Z,52.55
2018-07-04T07:34:50.758Z,53.03
2018-07-04T07:35:50.780Z,52.09
2018-07-04T07:36:50.726Z,51.89
2018-07-04T07:37:50.721Z,51.99
2018-07-04T07:38:50.677Z,52.09
2018-07-04T07:39:50.685Z,51.41
2018-07-04T07:40:50.640Z,51.51
2018-07-04T07:41:50.670Z,51.70
2018-07-04T07:42:50.600Z,51.41
2018-07-04T07:43:50.583Z,51.89
2018-07-04T07:44:50.562Z,51.41
2018-07-04T07:45:50.554Z,50.93
2018-07-04T07:46:50.536Z,51.51
2018-07-04T07:47:50.500Z,51.70
2018-07-04T07:48:50.542Z,51.99
2018-07-04T07:49:50.461Z,51.89
2018-07-04T07:50:50.452Z,51.99
2018-07-04T07:51:50.424Z,51.73
2018-07-04T07:52:50.416Z,51.53
2018-07-04T07:53:50.385Z,51.53
2018-07-04T07:54:50.372Z,51.53
2018-07-04T07:55:50.349Z,51.53
2018-07-04T07:56:50.328Z,51.34
2018-07-04T07:57:50.300Z,51.44
2018-07-04T07:58:50.304Z,51.73
2018-07-04T07:59:50.313Z,51.53
2018-07-04T08:00:50.249Z,51.73
2018-07-04T08:01:50.260Z,52.89
2018-07-04T08:02:50.210Z,52.04
2018-07-04T08:03:50.187Z,51.75
2018-07-04T08:04:50.175Z,51.95
2018-07-04T08:05:50.189Z,52.21
2018-07-04T08:06:50.129Z,52.79
2018-07-04T08:07:50.114Z,53.08
2018-07-04T08:08:50.104Z,53.01
2018-07-04T08:09:50.073Z,52.81
2018-07-04T08:10:50.951Z,52.81
2018-07-04T08:11:50.033Z,52.91
2018-07-04T08:12:50.014Z,53.01
2018-07-04T08:13:50.006Z,53.11
2018-07-04T08:14:49.980Z,53.69
2018-07-04T08:15:49.956Z,54.17
2018-07-04T08:16:49.932Z,54.36
2018-07-04T08:17:49.920Z,53.97
2018-07-04T08:18:49.905Z,54.46
2018-07-04T08:19:49.893Z,54.94
2018-07-04T08:20:49.854Z,54.75
2018-07-04T08:21:49.853Z,55.04
2018-07-04T08:22:49.823Z,53.97
2018-07-04T08:23:49.816Z,54.07
2018-07-04T08:24:49.790Z,54.55
2018-07-04T08:25:51.451Z,54.46
2018-07-04T08:26:49.748Z,54.49
2018-07-04T08:27:49.734Z,53.61
2018-07-04T08:28:49.705Z,53.81
2018-07-04T08:29:49.701Z,53.71
2018-07-04T08:30:49.673Z,53.61
2018-07-04T08:31:49.656Z,53.91
2018-07-04T08:32:49.637Z,53.61
2018-07-04T08:33:49.629Z,53.61
2018-07-04T08:34:49.597Z,53.33
2018-07-04T08:35:49.581Z,52.84
2018-07-04T08:36:49.561Z,52.87
2018-07-04T08:37:49.554Z,53.06
2018-07-04T08:38:49.547Z,53.06
2018-07-04T08:39:49.502Z,52.87
2018-07-04T08:40:49.488Z,51.90
2018-07-04T08:41:49.482Z,51.81
2018-07-04T08:42:49.449Z,52.87
2018-07-04T08:43:49.431Z,53.06
2018-07-04T08:44:49.409Z,52.58
2018-07-04T08:45:49.431Z,52.29
2018-07-04T08:46:49.391Z,52.58
2018-07-04T08:47:49.358Z,52.00
2018-07-04T08:48:49.452Z,52.19
2018-07-04T08:49:49.332Z,52.87
2018-07-04T08:50:49.559Z,52.19
2018-07-04T08:51:49.285Z,52.29
2018-07-04T08:52:49.273Z,51.83
2018-07-04T08:53:49.269Z,51.44
2018-07-04T08:54:49.313Z,51.93
2018-07-04T08:55:49.256Z,51.44
2018-07-04T08:56:49.189Z,51.54
2018-07-04T08:57:49.197Z,51.54
2018-07-04T08:58:49.158Z,50.70
2018-07-04T08:59:49.148Z,50.21
2018-07-04T09:00:49.115Z,49.82
2018-07-04T09:01:49.118Z,49.15
2018-07-04T09:02:50.044Z,49.05
2018-07-04T09:03:49.076Z,49.54
2018-07-04T09:04:49.075Z,49.15
2018-07-04T09:05:49.197Z,48.95
2018-07-04T09:06:50.953Z,48.66
2018-07-04T09:07:49.012Z,48.76
2018-07-04T09:08:48.981Z,49.02
2018-07-04T09:09:48.970Z,49.60
2018-07-04T09:10:48.947Z,49.70
2018-07-04T09:11:48.974Z,49.70
2018-07-04T09:12:50.450Z,49.63
2018-07-04T09:13:48.895Z,49.05
2018-07-04T09:14:48.898Z,48.66
2018-07-04T09:15:48.855Z,48.20
2018-07-04T09:16:48.844Z,47.24
2018-07-04T09:17:48.829Z,47.24
2018-07-04T09:18:48.805Z,46.94
2018-07-04T09:19:48.781Z,47.33
2018-07-04T09:20:48.960Z,46.66
2018-07-04T09:21:48.752Z,46.00
2018-07-04T09:22:48.753Z,45.90
2018-07-04T09:23:48.805Z,45.51
2018-07-04T09:24:48.702Z,45.22
2018-07-04T09:25:48.676Z,44.84
2018-07-04T09:26:48.685Z,44.93
2018-07-04T09:27:48.651Z,45.71
2018-07-04T09:28:48.642Z,45.59
2018-07-04T09:29:48.619Z,45.01
2018-07-04T09:30:48.606Z,44.74
2018-07-04T09:31:48.581Z,44.93
2018-07-04T09:32:48.562Z,45.13
2018-07-04T09:33:48.554Z,45.03
2018-07-04T09:34:48.532Z,44.76
2018-07-04T09:35:48.519Z,43.21
2018-07-04T09:36:48.496Z,43.79
2018-07-04T09:37:48.498Z,43.50
2018-07-04T09:38:48.968Z,43.89
2018-07-04T09:39:48.983Z,44.47
2018-07-04T09:40:48.432Z,44.47
2018-07-04T09:41:49.970Z,44.93
2018-07-04T09:42:49.077Z,45.22
2018-07-04T09:43:48.393Z,44.74
2018-07-04T09:44:48.373Z,44.64
2018-07-04T09:45:48.344Z,43.68
2018-07-04T09:46:48.326Z,42.90
2018-07-04T09:47:48.372Z,42.22
2018-07-04T09:48:48.306Z,39.61
2018-07-04T09:49:48.281Z,37.01
2018-07-04T09:50:48.968Z,35.81
2018-07-04T09:51:48.255Z,37.07
2018-07-04T09:52:48.234Z,37.57
2018-07-04T09:53:48.213Z,38.73
2018-07-04T09:54:48.221Z,39.72
2018-07-04T09:55:48.192Z,37.21
2018-07-04T09:56:48.178Z,35.85
2018-07-04T09:57:48.136Z,36.16
2018-07-04T09:58:48.195Z,35.09
2018-07-04T09:59:48.971Z,35.46
2018-07-04T10:00:48.096Z,35.86
2018-07-04T10:01:48.073Z,35.94
2018-07-04T10:02:48.076Z,37.30
2018-07-04T10:03:48.050Z,36.25
2018-07-04T10:04:48.031Z,35.36
2018-07-04T10:05:48.019Z,35.77
2018-07-04T10:06:47.994Z,35.19
2018-07-04T10:07:47.983Z,35.28
2018-07-04T10:08:47.957Z,34.72
2018-07-04T10:09:47.945Z,34.70
2018-07-04T10:10:47.934Z,34.62
2018-07-04T10:11:47.913Z,34.62
2018-07-04T10:12:47.891Z,33.92
2018-07-04T10:13:47.893Z,34.11
2018-07-04T10:14:47.875Z,34.30
2018-07-04T10:15:47.849Z,33.72
2018-07-04T10:16:47.828Z,33.31
2018-07-04T10:17:47.816Z,34.28
2018-07-04T10:18:47.798Z,35.15
2018-07-04T10:19:47.786Z,35.56
2018-07-04T10:20:47.767Z,34.80
2018-07-04T10:21:47.753Z,34.69
2018-07-04T10:22:47.746Z,35.05
2018-07-04T10:23:47.711Z,35.54
2018-07-04T10:24:47.699Z,35.27
2018-07-04T10:25:47.680Z,34.69
2018-07-04T10:26:47.676Z,34.49
2018-07-04T10:27:47.647Z,35.36
2018-07-04T10:28:48.476Z,35.36
2018-07-04T10:29:47.618Z,33.80
2018-07-04T10:30:47.607Z,34.30
2018-07-04T10:31:47.584Z,33.25
2018-07-04T10:32:47.566Z,32.37
2018-07-04T10:33:47.559Z,32.47
2018-07-04T10:34:47.538Z,32.67
2018-07-04T10:35:47.514Z,32.59
2018-07-04T10:36:47.500Z,32.21
2018-07-04T10:37:47.483Z,31.92
2018-07-04T10:38:47.461Z,32.50
2018-07-04T10:39:47.458Z,32.41
2018-07-04T10:40:47.437Z,31.65
2018-07-04T10:41:47.419Z,31.34
2018-07-04T10:42:47.400Z,31.16
2018-07-04T10:43:47.381Z,30.97
2018-07-04T10:44:47.410Z,31.24
2018-07-04T10:45:47.350Z,31.34
2018-07-04T10:46:47.338Z,31.07
2018-07-04T10:47:47.309Z,31.07
2018-07-04T10:48:47.301Z,31.15
2018-07-04T10:49:47.288Z,31.13
2018-07-04T10:50:47.271Z,32.39
2018-07-04T10:51:47.250Z,32.49
2018-07-04T10:52:47.242Z,32.21
2018-07-04T10:53:47.220Z,31.71
2018-07-04T10:54:47.205Z,32.10
2018-07-04T10:55:47.211Z,32.00
2018-07-04T10:56:47.188Z,31.15
2018-07-04T10:57:47.158Z,31.05
2018-07-04T10:58:47.151Z,31.05
2018-07-04T10:59:48.013Z,31.13
2018-07-04T11:00:47.106Z,32.18
2018-07-04T11:01:47.102Z,32.49
2018-07-04T11:02:47.078Z,32.10
2018-07-04T11:03:47.073Z,32.29
2018-07-04T11:04:47.048Z,32.10
2018-07-04T11:05:47.035Z,32.20
2018-07-04T11:06:48.006Z,31.81
2018-07-04T11:07:47.996Z,31.81
2018-07-04T11:08:47.011Z,31.24
2018-07-04T11:09:46.986Z,31.15
2018-07-04T11:10:46.948Z,31.15
2018-07-04T11:11:46.933Z,31.34
2018-07-04T11:12:47.494Z,30.97
2018-07-04T11:13:46.897Z,31.16
2018-07-04T11:14:46.901Z,30.88
2018-07-04T11:15:46.876Z,30.79
2018-07-04T11:16:46.893Z,30.88
2018-07-04T11:17:46.844Z,30.40
2018-07-04T11:18:46.843Z,29.82
2018-07-04T11:19:46.800Z,30.41
2018-07-04T11:20:46.796Z,30.11
2018-07-04T11:21:46.778Z,29.93
2018-07-04T11:22:46.766Z,29.74
2018-07-04T11:23:46.755Z,29.62
2018-07-04T11:24:46.725Z,29.14
2018-07-04T11:25:46.717Z,29.14
2018-07-04T11:26:46.694Z,29.32
2018-07-04T11:27:46.678Z,29.69
2018-07-04T11:28:46.664Z,30.48
2018-07-04T11:29:46.649Z,29.80
2018-07-04T11:30:46.630Z,29.71
2018-07-04T11:31:46.612Z,29.41
2018-07-04T11:32:46.622Z,29.41
2018-07-04T11:33:46.583Z,29.32
2018-07-04T11:34:46.570Z,29.43
2018-07-04T11:35:46.546Z,29.04
2018-07-04T11:36:46.542Z,28.75
2018-07-04T11:37:46.520Z,29.22
2018-07-04T11:38:46.511Z,29.50
2018-07-04T11:39:46.484Z,29.60
2018-07-04T11:40:46.987Z,29.88
2018-07-04T11:41:46.464Z,29.50
2018-07-04T11:42:46.440Z,29.22
2018-07-04T11:43:46.429Z,28.64
2018-07-04T11:44:46.412Z,28.74
2018-07-04T11:45:46.404Z,29.40
2018-07-04T11:46:46.376Z,29.21
2018-07-04T11:47:46.370Z,29.69
2018-07-04T11:48:46.349Z,29.01
2018-07-04T11:49:46.331Z,29.40
2018-07-04T11:50:46.322Z,29.41
2018-07-04T11:51:46.299Z,29.62
2018-07-04T11:52:46.289Z,29.22
2018-07-04T11:53:46.266Z,29.80
2018-07-04T11:54:46.270Z,29.72
2018-07-04T11:55:46.230Z,28.93
2018-07-04T11:56:46.221Z,29.61
2018-07-04T11:57:46.212Z,29.33
2018-07-04T11:58:46.193Z,29.14
2018-07-04T11:59:46.190Z,28.57
2018-07-04T12:00:46.166Z,27.79
2018-07-04T12:01:46.213Z,27.78
2018-07-04T12:02:46.127Z,28.83
2018-07-04T12:03:46.121Z,28.43
2018-07-04T12:04:46.090Z,28.81
2018-07-04T12:05:46.092Z,28.93
2018-07-04T12:06:46.063Z,28.64
2018-07-04T12:07:46.060Z,28.93
2018-07-04T12:08:46.045Z,28.54
2018-07-04T12:09:46.016Z,27.94
2018-07-04T12:10:46.009Z,28.72
2018-07-04T12:11:45.996Z,27.84
2018-07-04T12:12:45.984Z,28.43
2018-07-04T12:13:45.975Z,27.86
2018-07-04T12:14:45.938Z,28.25
2018-07-04T12:15:46.506Z,27.78
2018-07-04T12:16:45.904Z,26.72
2018-07-04T12:17:45.909Z,27.01
2018-07-04T12:18:45.873Z,26.72
2018-07-04T12:19:46.516Z,27.19
2018-07-04T12:20:45.857Z,26.61
2018-07-04T12:21:45.842Z,26.71
2018-07-04T12:22:45.813Z,26.62
2018-07-04T12:23:45.798Z,27.48
2018-07-04T12:24:45.785Z,27.78
2018-07-04T12:25:45.770Z,27.48
2018-07-04T12:26:45.853Z,27.97
2018-07-04T12:27:46.879Z,27.98
2018-07-04T12:28:47.771Z,28.09
2018-07-04T12:29:46.159Z,27.50
2018-07-04T12:30:48.490Z,27.97
2018-07-04T12:31:46.089Z,27.87
2018-07-04T12:32:45.811Z,28.05
2018-07-04T12:33:45.996Z,28.45
2018-07-04T12:34:46.303Z,28.64
2018-07-04T12:35:46.088Z,28.91
2018-07-04T12:36:45.994Z,29.12
2018-07-04T12:37:46.901Z,29.62
2018-07-04T12:38:46.155Z,29.15
2018-07-04T12:39:46.109Z,28.86
2018-07-04T12:40:47.868Z,28.17
2018-07-04T12:41:46.587Z,27.97
2018-07-04T12:42:45.942Z,28.65
2018-07-04T12:43:45.920Z,28.94
2018-07-04T12:44:45.970Z,29.04
2018-07-04T12:45:45.800Z,28.94
2018-07-04T12:46:45.921Z,28.96
2018-07-04T12:47:45.778Z,28.75
2018-07-04T12:48:45.713Z,28.94
2018-07-04T12:49:46.038Z,28.57
2018-07-04T12:50:45.800Z,28.58
2018-07-04T12:51:45.548Z,28.00
2018-07-04T12:52:45.655Z,28.09
2018-07-04T12:53:45.721Z,28.30
2018-07-04T12:54:45.783Z,27.62
2018-07-04T12:55:45.808Z,27.44
2018-07-04T12:56:45.683Z,27.44
2018-07-04T12:57:47.234Z,27.54
2018-07-04T12:58:46.620Z,27.65
2018-07-04T12:59:45.849Z,27.36
2018-07-04T13:00:45.741Z,27.44
2018-07-04T13:01:45.581Z,27.83
2018-07-04T13:02:45.461Z,27.93
2018-07-04T13:03:45.870Z,27.84
2018-07-04T13:04:45.469Z,27.94
2018-07-04T13:05:45.595Z,27.84
2018-07-04T13:06:45.493Z,27.75
2018-07-04T13:07:45.319Z,27.55
2018-07-04T13:08:47.824Z,27.65
2018-07-04T13:09:45.536Z,26.68
2018-07-04T13:11:45.522Z,28.02
2018-07-04T13:15:45.347Z,29.15
2018-07-04T13:16:45.891Z,29.62
2018-07-04T13:17:45.396Z,30.12
2018-07-04T13:18:45.351Z,29.85
2018-07-04T13:19:45.891Z,30.04